Time;durP1;ratioP1;P1;durP2;ratioP2;P2;SDS_P1;SDS_P2;PMS_P1;PMS_P2;Temp;Humidity;BMP_temperature;BMP_pressure;BME280_temperature;BME280_humidity;BME280_pressure;Samples;Min_cycle;Max_cycle;Signal;HPM_P1;HPM_P2
2021/05/26 00:02:15;;;;;;;1.63;0.50;;;16.10;65.50;;;;;;6321125;22;20011;-75
2021/05/26 00:04:40;;;;;;;1.73;0.47;;;16.10;65.60;;;;;;6321121;22;20096;-74
2021/05/26 00:07:06;;;;;;;1.83;0.80;;;16.10;65.70;;;;;;6321171;22;20018;-75
2021/05/26 00:09:32;;;;;;;0.98;0.40;;;16.10;65.70;;;;;;6320633;22;20086;-75
2021/05/26 00:11:58;;;;;;;2.55;0.82;;;16.10;65.70;;;;;;6321159;22;20007;-74
2021/05/26 00:14:24;;;;;;;2.25;0.52;;;16.10;65.70;;;;;;6320965;22;20011;-75
2021/05/26 00:16:50;;;;;;;1.80;0.60;;;16.10;65.60;;;;;;6294527;22;20011;-75
2021/05/26 00:19:16;;;;;;;2.05;0.50;;;16.10;65.70;;;;;;6321013;22;20007;-76
2021/05/26 00:21:42;;;;;;;1.85;0.60;;;16.10;65.60;;;;;;6320578;22;20015;-78
2021/05/26 00:24:08;;;;;;;2.17;0.57;;;16.10;65.40;;;;;;6321171;22;20011;-77
2021/05/26 00:26:34;;;;;;;1.92;0.50;;;16.10;65.50;;;;;;6320575;22;20323;-75
2021/05/26 00:29:00;;;;;;;1.90;0.65;;;16.10;65.60;;;;;;6320288;22;20011;-74
2021/05/26 00:31:26;;;;;;;1.40;0.40;;;16.10;65.60;;;;;;6321377;22;20018;-76
2021/05/26 00:33:52;;;;;;;2.15;0.40;;;16.10;65.60;;;;;;6320803;22;20096;-75
2021/05/26 00:36:19;;;;;;;1.35;0.30;;;16.10;65.60;;;;;;6321048;22;20011;-75
2021/05/26 00:38:45;;;;;;;2.55;0.50;;;16.10;65.50;;;;;;6320780;22;20076;-76
2021/05/26 00:41:11;;;;;;;2.38;0.60;;;16.10;65.50;;;;;;6320743;22;20408;-76
2021/05/26 00:43:37;;;;;;;2.17;0.60;;;16.10;65.50;;;;;;6311225;22;20030;-76
2021/05/26 00:46:03;;;;;;;1.27;0.40;;;16.10;65.50;;;;;;6282691;22;20019;-75
2021/05/26 00:48:29;;;;;;;1.10;0.50;;;16.10;65.50;;;;;;6321076;22;20053;-75
2021/05/26 00:50:55;;;;;;;3.15;0.38;;;16.10;65.50;;;;;;6293810;22;20073;-75
2021/05/26 00:53:24;;;;;;;2.42;0.30;;;16.10;65.50;;;;;;6320582;22;20414;-75
2021/05/26 00:55:50;;;;;;;1.30;0.50;;;16.10;65.40;;;;;;6310755;22;20105;-75
2021/05/26 00:58:16;;;;;;;1.38;0.45;;;16.10;65.40;;;;;;6320592;22;20016;-75
2021/05/26 01:00:43;;;;;;;2.17;0.43;;;16.10;65.40;;;;;;6320858;22;20018;-75
2021/05/26 01:03:11;;;;;;;1.35;0.40;;;16.00;65.50;;;;;;6310677;22;20022;-75
2021/05/26 01:05:37;;;;;;;1.58;0.60;;;16.10;65.50;;;;;;6320649;22;20018;-76
2021/05/26 01:08:03;;;;;;;1.70;0.30;;;16.00;65.50;;;;;;6320349;22;20296;-73
2021/05/26 01:10:31;;;;;;;1.90;0.60;;;16.00;65.40;;;;;;6320378;22;20061;-78
2021/05/26 01:12:57;;;;;;;1.50;0.50;;;16.00;65.50;;;;;;6321108;22;20082;-74
2021/05/26 01:15:23;;;;;;;1.45;0.43;;;16.00;65.50;;;;;;6320958;22;20019;-75
2021/05/26 01:17:50;;;;;;;1.02;0.40;;;16.00;65.50;;;;;;6319991;22;20304;-74
2021/05/26 01:20:23;;;;;;;1.25;0.60;;;16.00;65.60;;;;;;6311041;22;20015;-75
2021/05/26 01:22:50;;;;;;;1.92;0.40;;;16.00;65.40;;;;;;6320422;22;20011;-75
2021/05/26 01:25:16;;;;;;;3.25;0.60;;;16.00;65.50;;;;;;6320596;22;20025;-79
2021/05/26 01:27:42;;;;;;;1.52;0.50;;;16.00;65.40;;;;;;6320340;22;20019;-75
2021/05/26 01:30:08;;;;;;;3.00;0.90;;;16.00;65.50;;;;;;6319818;22;20077;-76
2021/05/26 01:32:49;;;;;;;1.33;0.35;;;16.00;65.50;;;;;;6320663;22;20011;-75
2021/05/26 01:35:16;;;;;;;1.65;0.45;;;16.00;65.10;;;;;;6320234;22;20007;-75
2021/05/26 01:37:45;;;;;;;0.98;0.32;;;16.00;65.50;;;;;;6320236;22;20031;-75
2021/05/26 01:40:17;;;;;;;3.28;0.50;;;16.00;65.50;;;;;;6319957;22;20019;-76
2021/05/26 01:42:45;;;;;;;1.98;0.40;;;16.00;65.40;;;;;;6293676;22;20015;-74
2021/05/26 01:45:12;;;;;;;2.58;0.70;;;16.00;65.40;;;;;;6310119;22;20120;-74
2021/05/26 01:47:38;;;;;;;1.88;0.60;;;16.00;65.50;;;;;;6312014;22;20019;-74
2021/05/26 01:50:06;;;;;;;1.90;0.60;;;16.00;65.50;;;;;;6320356;22;20279;-74
2021/05/26 01:52:32;;;;;;;3.00;0.70;;;16.00;65.60;;;;;;6320481;22;20030;-75
2021/05/26 01:54:58;;;;;;;2.13;0.43;;;16.00;65.50;;;;;;6319735;22;20397;-75
2021/05/26 01:57:23;;;;;;;0.93;0.40;;;15.90;65.60;;;;;;6320136;22;20012;-75
2021/05/26 01:59:49;;;;;;;0.98;0.40;;;16.00;65.50;;;;;;6320200;22;20007;-77
2021/05/26 02:02:15;;;;;;;2.30;0.63;;;15.90;65.50;;;;;;6320061;22;20360;-75
2021/05/26 02:04:41;;;;;;;1.48;0.38;;;15.90;65.60;;;;;;6319607;22;20093;-74
2021/05/26 02:07:11;;;;;;;1.67;0.38;;;15.90;65.60;;;;;;6320682;22;20082;-75
2021/05/26 02:09:37;;;;;;;1.27;0.57;;;15.90;65.60;;;;;;6322233;22;20104;-74
2021/05/26 02:12:22;;;;;;;2.80;0.52;;;15.90;65.70;;;;;;6322567;22;20078;-73
2021/05/26 02:14:57;;;;;;;1.63;0.50;;;15.90;65.60;;;;;;6322434;22;20010;-74
2021/05/26 02:17:23;;;;;;;2.92;0.75;;;15.90;65.50;;;;;;6322849;22;20022;-77
2021/05/26 02:19:49;;;;;;;2.60;0.70;;;15.90;65.60;;;;;;6322135;22;20007;-75
2021/05/26 02:22:16;;;;;;;3.60;0.80;;;15.90;65.70;;;;;;6322655;22;20011;-75
2021/05/26 02:24:42;;;;;;;2.65;0.63;;;15.90;65.60;;;;;;6322553;22;20015;-74
2021/05/26 02:27:08;;;;;;;2.20;0.63;;;15.90;65.70;;;;;;6321998;22;20015;-75
2021/05/26 02:29:34;;;;;;;1.20;0.43;;;15.90;65.80;;;;;;6295185;22;20018;-74
2021/05/26 02:32:01;;;;;;;1.90;0.47;;;15.90;65.70;;;;;;6321596;22;20130;-74
2021/05/26 02:34:27;;;;;;;1.35;0.50;;;15.90;65.60;;;;;;6322506;22;20404;-75
2021/05/26 02:36:53;;;;;;;1.17;0.55;;;15.90;65.70;;;;;;6322296;22;20017;-74
2021/05/26 02:39:19;;;;;;;0.98;0.57;;;15.90;65.80;;;;;;6322325;22;20345;-75
2021/05/26 02:41:45;;;;;;;2.20;0.50;;;15.90;65.70;;;;;;6321523;22;20022;-77
2021/05/26 02:44:14;;;;;;;1.65;0.52;;;15.90;65.80;;;;;;6321551;22;20347;-74
2021/05/26 02:46:40;;;;;;;1.58;0.50;;;15.90;65.70;;;;;;6317950;22;20015;-76
2021/05/26 02:49:06;;;;;;;1.27;0.40;;;15.80;65.60;;;;;;6322092;22;20038;-75
2021/05/26 02:51:33;;;;;;;1.83;0.60;;;15.90;65.80;;;;;;6322280;22;20296;-74
2021/05/26 02:53:59;;;;;;;2.47;0.70;;;15.90;65.80;;;;;;6321754;22;20014;-73
2021/05/26 02:56:25;;;;;;;2.53;0.57;;;15.90;65.70;;;;;;6321942;22;20019;-76
2021/05/26 02:58:51;;;;;;;1.60;0.50;;;15.90;65.70;;;;;;6321472;22;20019;-74
2021/05/26 03:01:17;;;;;;;1.13;0.45;;;15.90;65.80;;;;;;6322416;22;20038;-75
2021/05/26 03:03:43;;;;;;;1.70;0.52;;;15.90;65.70;;;;;;6321709;22;20015;-74
2021/05/26 03:06:09;;;;;;;2.22;0.52;;;15.90;65.70;;;;;;6311238;22;20022;-74
2021/05/26 03:08:35;;;;;;;2.35;0.60;;;15.90;65.70;;;;;;6321871;22;20007;-77
2021/05/26 03:11:01;;;;;;;2.05;0.50;;;15.90;65.60;;;;;;6311509;22;20349;-74
2021/05/26 03:13:27;;;;;;;1.25;0.40;;;15.90;65.60;;;;;;6294752;22;20091;-76
2021/05/26 03:15:54;;;;;;;2.47;0.75;;;15.90;65.60;;;;;;6322248;22;20090;-75
2021/05/26 03:18:20;;;;;;;1.30;0.40;;;15.90;65.70;;;;;;6321226;22;20074;-75
2021/05/26 03:20:47;;;;;;;1.20;0.50;;;15.90;65.70;;;;;;6321515;22;20011;-75
2021/05/26 03:23:14;;;;;;;2.17;0.57;;;15.90;65.70;;;;;;6322304;22;20041;-76
2021/05/26 03:25:40;;;;;;;1.40;0.30;;;15.90;65.70;;;;;;6321597;22;20018;-76
2021/05/26 03:28:06;;;;;;;2.22;0.45;;;15.90;65.70;;;;;;6322200;22;20011;-74
2021/05/26 03:30:33;;;;;;;1.42;0.55;;;15.90;65.60;;;;;;6321351;22;20407;-73
2021/05/26 03:33:00;;;;;;;2.00;0.50;;;15.90;65.60;;;;;;6294467;22;20022;-73
2021/05/26 03:35:27;;;;;;;1.52;0.25;;;15.90;65.60;;;;;;6321044;22;20486;-74
2021/05/26 03:37:53;;;;;;;2.63;0.73;;;15.90;65.60;;;;;;6321731;22;20046;-75
2021/05/26 03:40:19;;;;;;;2.38;0.43;;;15.80;65.50;;;;;;6321678;22;20057;-74
2021/05/26 03:42:46;;;;;;;1.90;0.55;;;15.80;65.50;;;;;;6310510;22;20404;-75
2021/05/26 03:45:13;;;;;;;1.75;0.40;;;15.90;65.60;;;;;;6321261;22;20015;-74
2021/05/26 03:47:39;;;;;;;1.52;0.40;;;15.80;65.50;;;;;;6313951;22;20074;-74
2021/05/26 03:50:06;;;;;;;1.85;0.70;;;15.80;65.40;;;;;;6321555;22;20015;-76
2021/05/26 03:52:32;;;;;;;1.17;0.40;;;15.80;65.50;;;;;;6321293;22;20015;-75
2021/05/26 03:54:58;;;;;;;2.85;0.32;;;15.80;65.40;;;;;;6321274;22;20076;-75
2021/05/26 03:57:24;;;;;;;1.52;0.35;;;15.80;65.40;;;;;;6321120;22;20011;-73
2021/05/26 03:59:50;;;;;;;1.75;0.47;;;15.80;65.50;;;;;;6294457;22;20078;-76
2021/05/26 04:02:16;;;;;;;1.73;0.50;;;15.80;65.50;;;;;;6321906;22;20015;-75
2021/05/26 04:04:41;;;;;;;2.47;0.45;;;15.80;65.60;;;;;;6321435;22;20301;-72
2021/05/26 04:07:08;;;;;;;1.23;0.30;;;15.80;65.50;;;;;;6310696;22;20090;-74
2021/05/26 04:09:34;;;;;;;1.75;0.30;;;15.80;65.50;;;;;;6320973;22;20011;-74
2021/05/26 04:12:00;;;;;;;0.98;0.30;;;15.80;65.50;;;;;;6320666;22;20014;-75
2021/05/26 04:14:26;;;;;;;0.70;0.30;;;15.80;65.50;;;;;;6321061;22;20007;-74
2021/05/26 04:16:51;;;;;;;1.65;0.35;;;15.80;65.50;;;;;;6320998;22;20090;-74
2021/05/26 04:19:17;;;;;;;1.75;0.45;;;15.80;65.50;;;;;;6321767;22;20082;-76
2021/05/26 04:21:43;;;;;;;0.70;0.30;;;15.80;65.40;;;;;;6320937;22;20424;-74
2021/05/26 04:24:09;;;;;;;2.03;0.60;;;15.80;65.40;;;;;;6321094;22;20124;-73
2021/05/26 04:26:35;;;;;;;0.63;0.40;;;15.80;65.40;;;;;;6321654;22;20011;-74
2021/05/26 04:29:01;;;;;;;1.27;0.30;;;15.80;65.40;;;;;;6313498;22;20025;-75
2021/05/26 04:31:27;;;;;;;1.23;0.30;;;15.80;65.30;;;;;;6321469;22;20408;-75
2021/05/26 04:33:52;;;;;;;1.92;0.65;;;15.80;65.30;;;;;;6320542;22;20411;-75
2021/05/26 04:36:18;;;;;;;1.20;0.45;;;15.80;65.30;;;;;;6321083;22;20011;-77
2021/05/26 04:38:44;;;;;;;3.63;0.30;;;15.80;65.40;;;;;;6321494;22;20278;-75
2021/05/26 04:41:10;;;;;;;1.45;0.30;;;15.80;65.40;;;;;;6320360;22;20361;-74
2021/05/26 04:43:36;;;;;;;1.98;0.47;;;15.80;65.40;;;;;;6320878;22;20022;-74
2021/05/26 04:46:04;;;;;;;1.35;0.40;;;15.80;65.40;;;;;;6319295;22;21733;-75
2021/05/26 04:48:30;;;;;;;1.52;0.35;;;15.80;65.40;;;;;;6310464;22;20015;-73
2021/05/26 04:50:56;;;;;;;1.83;0.40;;;15.80;65.40;;;;;;6320849;22;20542;-73
2021/05/26 04:53:22;;;;;;;2.35;0.50;;;15.80;65.40;;;;;;6320881;22;20066;-75
2021/05/26 04:55:49;;;;;;;1.67;0.30;;;15.80;65.40;;;;;;6310115;22;20015;-76
2021/05/26 04:58:15;;;;;;;2.25;0.50;;;15.80;65.40;;;;;;6310313;22;20442;-72
2021/05/26 05:00:41;;;;;;;1.58;0.30;;;15.90;65.40;;;;;;6319713;22;20029;-73
2021/05/26 05:03:07;;;;;;;1.05;0.50;;;15.90;65.30;;;;;;6320997;22;20324;-74
2021/05/26 05:05:33;;;;;;;1.83;0.55;;;15.90;64.90;;;;;;6320523;22;20065;-73
2021/05/26 05:08:04;;;;;;;2.45;0.70;;;15.90;64.60;;;;;;6320567;22;20016;-74
2021/05/26 05:10:31;;;;;;;1.48;0.68;;;15.90;64.50;;;;;;6320314;22;20057;-73
2021/05/26 05:12:57;;;;;;;7.13;0.93;;;15.90;64.30;;;;;;6294134;22;20018;-74
2021/05/26 05:15:22;;;;;;;2.50;0.63;;;15.90;64.30;;;;;;6321175;22;20011;-76
2021/05/26 05:17:49;;;;;;;4.25;0.95;;;15.90;64.10;;;;;;6320254;22;20022;-78
2021/05/26 05:20:20;;;;;;;6.65;1.15;;;16.00;64.20;;;;;;6310731;22;20022;-75
2021/05/26 05:22:50;;;;;;;5.63;1.20;;;15.90;64.10;;;;;;6320285;22;20018;-77
2021/05/26 05:25:16;;;;;;;4.60;1.33;;;16.00;64.40;;;;;;6319974;22;20011;-80
2021/05/26 05:27:42;;;;;;;2.72;1.08;;;15.90;64.40;;;;;;6310152;22;20002;-73
2021/05/26 05:30:09;;;;;;;3.75;1.17;;;15.90;64.70;;;;;;6319932;22;20007;-75
2021/05/26 05:32:35;;;;;;;3.25;1.23;;;15.90;64.80;;;;;;6320230;22;20392;-74
2021/05/26 05:35:01;;;;;;;9.88;1.20;;;15.90;64.70;;;;;;6320149;22;20007;-76
2021/05/26 05:37:27;;;;;;;4.63;1.33;;;15.90;65.00;;;;;;6320635;22;20014;-72
2021/05/26 05:39:53;;;;;;;10.70;1.17;;;15.90;65.50;;;;;;6319753;22;20042;-73
2021/05/26 05:42:20;;;;;;;7.95;1.20;;;16.00;66.10;;;;;;6309582;22;20066;-74
2021/05/26 05:44:46;;;;;;;4.90;1.13;;;16.00;66.40;;;;;;6320266;22;20022;-77
2021/05/26 05:47:12;;;;;;;9.30;1.30;;;15.90;67.40;;;;;;6313853;22;20011;-74
2021/05/26 05:49:39;;;;;;;4.30;0.60;;;15.90;67.00;;;;;;6320125;22;20060;-75
2021/05/26 05:52:05;;;;;;;2.80;1.00;;;15.90;67.30;;;;;;6320335;22;20049;-77
2021/05/26 05:54:31;;;;;;;5.45;1.05;;;15.90;67.40;;;;;;6320760;22;20034;-74
2021/05/26 05:56:56;;;;;;;4.88;0.80;;;15.90;67.60;;;;;;6320150;22;20011;-74
2021/05/26 05:59:22;;;;;;;4.78;0.75;;;15.90;67.60;;;;;;6320423;22;20057;-75
2021/05/26 06:01:48;;;;;;;5.35;1.15;;;15.80;67.50;;;;;;6320164;22;20122;-78
2021/05/26 06:04:14;;;;;;;3.15;0.70;;;15.80;67.70;;;;;;6319646;22;20015;-77
2021/05/26 06:06:39;;;;;;;7.53;0.80;;;15.80;67.90;;;;;;6293494;22;20061;-80
2021/05/26 06:09:05;;;;;;;7.38;1.00;;;15.80;67.90;;;;;;6256635;22;20084;-75
2021/05/26 06:11:34;;;;;;;18.60;1.20;;;15.90;68.40;;;;;;6319534;22;20015;-76
2021/05/26 06:14:04;;;;;;;10.40;1.20;;;15.90;68.90;;;;;;6319764;22;20392;-75
2021/05/26 06:16:37;;;;;;;11.38;1.10;;;15.90;69.00;;;;;;6293217;22;20074;-75
2021/05/26 06:19:04;;;;;;;6.90;1.40;;;16.00;68.80;;;;;;6293121;22;20015;-75
2021/05/26 06:21:31;;;;;;;9.55;1.48;;;16.00;68.40;;;;;;6320193;22;20277;-74
2021/05/26 06:23:57;;;;;;;8.23;1.30;;;16.00;68.20;;;;;;6320704;22;20007;-73
2021/05/26 06:26:24;;;;;;;7.07;0.65;;;16.10;68.00;;;;;;6320402;22;20018;-74
2021/05/26 06:28:50;;;;;;;6.15;0.75;;;16.10;67.90;;;;;;6319592;22;20019;-75
2021/05/26 06:31:16;;;;;;;9.65;1.38;;;16.20;67.80;;;;;;6319661;22;20011;-75
2021/05/26 06:33:42;;;;;;;7.47;1.17;;;16.20;67.70;;;;;;6309491;22;20015;-75
2021/05/26 06:36:09;;;;;;;4.38;0.63;;;16.20;67.50;;;;;;6319617;22;20015;-73
2021/05/26 06:38:36;;;;;;;5.55;0.70;;;16.20;67.40;;;;;;6320440;22;20081;-73
2021/05/26 06:41:02;;;;;;;11.02;0.80;;;16.20;67.30;;;;;;6320146;22;20470;-75
2021/05/26 06:43:29;;;;;;;17.13;1.83;;;16.20;67.30;;;;;;6320105;22;20034;-74
2021/05/26 06:45:55;;;;;;;7.72;1.00;;;16.20;67.20;;;;;;6319407;22;20011;-73
2021/05/26 06:48:20;;;;;;;8.75;1.15;;;16.20;66.90;;;;;;6319794;22;20072;-73
2021/05/26 06:50:46;;;;;;;5.10;0.77;;;16.20;66.90;;;;;;6319995;22;20011;-74
2021/05/26 06:53:12;;;;;;;7.22;0.95;;;16.20;66.50;;;;;;6319474;22;20420;-74
2021/05/26 06:55:38;;;;;;;3.78;0.50;;;16.10;66.60;;;;;;6322384;22;20077;-73
2021/05/26 06:58:04;;;;;;;5.57;0.80;;;16.10;66.30;;;;;;6321183;22;20299;-74
2021/05/26 07:00:30;;;;;;;3.22;0.50;;;16.10;66.60;;;;;;6321716;22;20015;-74
2021/05/26 07:02:56;;;;;;;4.45;0.60;;;16.10;65.80;;;;;;6321237;22;20473;-75
2021/05/26 07:05:22;;;;;;;3.00;0.50;;;16.10;64.60;;;;;;6321571;22;20007;-75
2021/05/26 07:07:48;;;;;;;2.00;0.50;;;16.10;63.70;;;;;;6321640;22;20027;-75
2021/05/26 07:10:16;;;;;;;1.90;0.30;;;16.10;62.90;;;;;;6321397;22;20096;-76
2021/05/26 07:12:43;;;;;;;2.38;0.35;;;16.10;62.10;;;;;;6321874;22;20015;-73
2021/05/26 07:15:10;;;;;;;1.42;0.30;;;16.10;61.70;;;;;;6294642;22;20086;-74
2021/05/26 07:17:36;;;;;;;1.05;0.35;;;16.10;61.50;;;;;;6311662;22;20329;-74
2021/05/26 07:20:03;;;;;;;1.60;0.30;;;16.10;61.30;;;;;;6321546;22;20015;-74
2021/05/26 07:22:30;;;;;;;1.88;0.55;;;16.10;61.00;;;;;;6320984;22;20086;-74
2021/05/26 07:24:55;;;;;;;1.20;0.32;;;16.00;60.80;;;;;;6294586;22;20011;-74
2021/05/26 07:27:22;;;;;;;2.67;0.40;;;16.00;60.70;;;;;;6321603;22;20015;-74
2021/05/26 07:29:48;;;;;;;1.23;0.20;;;16.00;60.50;;;;;;6320946;22;20061;-74
2021/05/26 07:32:13;;;;;;;2.03;0.32;;;16.00;60.90;;;;;;6321095;22;20015;-76
2021/05/26 07:34:39;;;;;;;1.40;0.20;;;16.00;61.30;;;;;;6321018;22;20289;-75
2021/05/26 07:37:05;;;;;;;3.30;0.75;;;16.00;61.70;;;;;;6321570;22;20258;-77
2021/05/26 07:39:35;;;;;;;5.82;0.40;;;15.90;61.90;;;;;;6321329;22;20065;-73
2021/05/26 07:42:05;;;;;;;4.78;0.90;;;15.90;62.20;;;;;;6321321;22;20007;-73
2021/05/26 07:44:31;;;;;;;4.78;0.30;;;15.90;62.40;;;;;;6321026;22;20043;-77
2021/05/26 07:46:57;;;;;;;3.55;0.30;;;15.90;62.80;;;;;;6315717;22;20011;-77
2021/05/26 07:49:23;;;;;;;2.70;0.55;;;15.90;63.00;;;;;;6320831;22;20080;-74
2021/05/26 07:51:51;;;;;;;4.30;0.30;;;15.90;63.00;;;;;;6320937;22;20011;-75
2021/05/26 07:54:18;;;;;;;1.70;0.30;;;15.90;63.40;;;;;;6321304;22;20011;-76
2021/05/26 07:56:44;;;;;;;6.13;0.30;;;15.90;63.40;;;;;;6310692;22;20011;-73
2021/05/26 07:59:10;;;;;;;3.28;0.40;;;15.90;63.50;;;;;;6321883;22;20109;-73
2021/05/26 08:01:36;;;;;;;1.52;0.20;;;15.90;63.50;;;;;;6293895;22;20307;-74
2021/05/26 08:04:02;;;;;;;5.32;0.20;;;15.90;63.30;;;;;;6321373;22;20039;-74
2021/05/26 08:06:28;;;;;;;5.32;0.30;;;15.90;63.60;;;;;;6320635;22;20346;-73
2021/05/26 08:08:54;;;;;;;4.15;0.30;;;15.90;63.60;;;;;;6321599;22;20007;-73
2021/05/26 08:11:20;;;;;;;1.10;0.40;;;16.00;63.70;;;;;;6320640;22;20007;-74
2021/05/26 08:13:46;;;;;;;2.58;0.30;;;16.00;63.60;;;;;;6311643;22;20022;-73
2021/05/26 08:16:12;;;;;;;2.88;0.50;;;16.00;63.60;;;;;;6321029;22;20007;-75
2021/05/26 08:18:39;;;;;;;3.75;0.50;;;16.00;63.50;;;;;;6321670;22;20033;-74
2021/05/26 08:21:05;;;;;;;4.82;0.57;;;16.10;63.70;;;;;;6320598;22;20007;-74
2021/05/26 08:23:31;;;;;;;2.13;0.60;;;16.10;63.50;;;;;;6320885;22;20339;-74
2021/05/26 08:25:56;;;;;;;5.22;0.40;;;16.00;63.30;;;;;;6320667;22;20011;-73
2021/05/26 08:28:22;;;;;;;5.25;0.68;;;16.00;63.40;;;;;;6320868;22;20404;-77
2021/05/26 08:30:48;;;;;;;3.78;0.77;;;16.10;63.60;;;;;;6320728;22;20372;-72
2021/05/26 08:33:14;;;;;;;3.88;0.63;;;16.10;63.50;;;;;;6320858;22;20007;-74
2021/05/26 08:35:40;;;;;;;1.20;0.20;;;16.20;62.00;;;;;;6293861;22;20408;-79
2021/05/26 08:38:06;;;;;;;1.75;0.30;;;16.10;60.50;;;;;;6321181;22;20022;-76
2021/05/26 08:40:32;;;;;;;1.80;0.20;;;16.10;60.10;;;;;;6320789;22;20018;-78
2021/05/26 08:42:58;;;;;;;1.10;0.20;;;16.00;60.20;;;;;;6320788;22;20373;-79
2021/05/26 08:45:26;;;;;;;2.45;0.30;;;16.00;60.00;;;;;;6310385;22;20031;-72
2021/05/26 08:47:54;;;;;;;3.08;0.30;;;16.00;60.40;;;;;;6311736;22;20392;-71
2021/05/26 08:50:20;;;;;;;4.82;0.43;;;16.00;60.60;;;;;;6320726;22;20011;-71
2021/05/26 08:52:47;;;;;;;2.20;0.68;;;16.00;60.80;;;;;;6321040;22;20015;-72
2021/05/26 08:55:14;;;;;;;4.53;0.73;;;16.00;60.90;;;;;;6320682;22;20018;-71
2021/05/26 08:57:40;;;;;;;2.97;0.40;;;16.10;61.00;;;;;;6320368;22;20011;-71
2021/05/26 09:00:08;;;;;;;1.50;0.45;;;16.10;61.10;;;;;;6320028;22;20107;-70
2021/05/26 09:02:34;;;;;;;6.07;0.65;;;16.10;61.20;;;;;;6320574;22;20017;-71
2021/05/26 09:05:00;;;;;;;3.55;0.50;;;16.10;61.20;;;;;;6310253;22;20452;-71
2021/05/26 09:07:29;;;;;;;3.38;0.30;;;16.10;61.30;;;;;;6320835;22;20026;-71
2021/05/26 09:09:57;;;;;;;7.43;0.43;;;16.10;61.40;;;;;;6310062;22;20028;-71
2021/05/26 09:12:29;;;;;;;2.35;0.20;;;16.10;61.50;;;;;;6319990;22;20412;-71
2021/05/26 09:15:00;;;;;;;1.98;0.47;;;16.20;61.70;;;;;;6320459;22;20011;-70
2021/05/26 09:17:30;;;;;;;2.00;0.40;;;16.10;61.80;;;;;;6309409;22;20045;-70
2021/05/26 09:20:24;;;;;;;2.28;0.35;;;16.10;62.00;;;;;;6320039;22;20085;-71
2021/05/26 09:23:09;;;;;;;1.08;0.45;;;16.20;62.10;;;;;;6319938;22;20022;-71
2021/05/26 09:25:49;;;;;;;4.10;0.45;;;16.20;62.20;;;;;;6320251;22;20007;-72
2021/05/26 09:28:30;;;;;;;2.03;0.25;;;16.10;62.20;;;;;;6320717;22;20035;-71
2021/05/26 09:31:05;;;;;;;1.38;0.38;;;16.20;62.30;;;;;;6320180;22;20116;-71
2021/05/26 09:33:45;;;;;;;0.60;0.20;;;16.20;62.40;;;;;;6320317;22;20023;-72
2021/05/26 09:36:22;;;;;;;2.22;0.30;;;16.20;62.40;;;;;;6320238;22;20007;-71
2021/05/26 09:38:51;;;;;;;0.85;0.20;;;16.20;62.40;;;;;;6320328;22;20011;-71
2021/05/26 09:41:20;;;;;;;1.48;0.32;;;16.20;62.50;;;;;;6320283;22;20007;-70
2021/05/26 09:43:54;;;;;;;2.47;0.35;;;16.20;62.60;;;;;;6320240;22;20007;-71
2021/05/26 09:46:33;;;;;;;1.83;0.45;;;16.20;62.60;;;;;;6317279;22;20039;-71
2021/05/26 09:49:02;;;;;;;1.15;0.40;;;16.20;62.60;;;;;;6320426;22;20007;-71
2021/05/26 09:51:30;;;;;;;2.92;0.57;;;16.20;62.60;;;;;;6320071;22;20007;-72
2021/05/26 09:54:14;;;;;;;3.58;0.55;;;16.20;62.60;;;;;;6320005;22;20085;-74
2021/05/26 09:56:41;;;;;;;3.28;0.73;;;16.30;62.80;;;;;;6319764;22;20296;-76
2021/05/26 09:59:07;;;;;;;1.52;0.52;;;16.30;62.60;;;;;;6320095;22;20011;-72
2021/05/26 10:01:34;;;;;;;2.28;0.40;;;16.30;62.30;;;;;;6320228;22;20084;-72
2021/05/26 10:04:01;;;;;;;1.65;0.45;;;16.30;62.30;;;;;;6320120;22;20401;-69
2021/05/26 10:06:28;;;;;;;3.20;0.60;;;16.30;62.50;;;;;;6320126;22;20384;-78
2021/05/26 10:09:05;;;;;;;2.92;0.60;;;16.30;62.60;;;;;;6319884;22;20011;-80
2021/05/26 10:11:33;;;;;;;2.58;1.05;;;16.30;63.00;;;;;;6283297;22;20015;-79
2021/05/26 10:14:05;;;;;;;3.75;0.60;;;16.30;62.70;;;;;;6282690;22;19999;-74
2021/05/26 10:16:33;;;;;;;4.53;0.60;;;16.30;62.90;;;;;;6319978;22;20325;-78
2021/05/26 10:19:02;;;;;;;3.30;0.80;;;16.30;63.00;;;;;;6319717;22;20015;-75
2021/05/26 10:21:29;;;;;;;1.88;0.73;;;16.30;62.60;;;;;;6319925;22;20011;-74
2021/05/26 10:23:56;;;;;;;2.65;0.63;;;16.30;62.70;;;;;;6319747;22;20011;-73
2021/05/26 10:26:46;;;;;;;3.30;1.00;;;16.30;63.00;;;;;;6319837;22;20015;-73
2021/05/26 10:29:30;;;;;;;4.55;0.88;;;16.30;63.10;;;;;;6321589;22;20011;-74
2021/05/26 10:32:00;;;;;;;;;;;16.30;63.40;;;;;;6312028;22;20289;-78
2021/05/26 10:34:47;;;;;;;5.10;1.00;;;16.30;63.40;;;;;;6322040;22;19968;-78
2021/05/26 10:37:24;;;;;;;4.40;0.85;;;16.30;63.20;;;;;;6321947;22;20015;-76
2021/05/26 10:39:50;;;;;;;3.30;1.00;;;16.30;63.50;;;;;;6322100;22;20110;-76
2021/05/26 10:42:30;;;;;;;3.25;0.77;;;16.30;63.00;;;;;;6321825;22;20400;-75
2021/05/26 10:45:06;;;;;;;3.33;0.75;;;16.30;62.80;;;;;;6311167;22;20416;-76
2021/05/26 10:47:38;;;;;;;2.08;0.60;;;16.30;63.00;;;;;;6314036;22;20042;-76
2021/05/26 10:50:15;;;;;;;7.55;0.88;;;16.40;63.20;;;;;;6321422;22;20331;-77
2021/05/26 10:52:56;;;;;;;4.03;1.00;;;16.30;63.40;;;;;;6321920;22;20014;-74
2021/05/26 10:55:43;;;;;;;2.63;0.82;;;16.30;63.30;;;;;;6321925;22;20007;-76
2021/05/26 10:58:41;;;;;;;2.53;0.98;;;16.30;63.40;;;;;;6321165;22;20332;-77
2021/05/26 11:01:08;;;;;;;5.60;0.70;;;16.40;63.70;;;;;;6291767;22;20007;-75
2021/05/26 11:03:36;;;;;;;3.00;0.85;;;16.40;63.70;;;;;;6321870;22;20011;-80
2021/05/26 11:06:12;;;;;;;4.45;0.95;;;16.40;63.70;;;;;;6321793;22;20300;-77
2021/05/26 11:08:55;;;;;;;3.58;1.00;;;16.40;63.30;;;;;;6321372;22;20002;-78
2021/05/26 11:11:33;;;;;;;4.05;0.77;;;16.40;63.40;;;;;;6321457;22;20053;-78
2021/05/26 11:14:06;;;;;;;4.47;1.15;;;16.40;63.30;;;;;;6321349;22;20022;-76
2021/05/26 11:16:40;;;;;;;2.40;1.00;;;16.40;63.30;;;;;;6321681;22;20048;-76
2021/05/26 11:19:27;;;;;;;1.75;0.73;;;16.30;63.20;;;;;;6294422;22;20030;-76
2021/05/26 11:22:00;;;;;;;4.05;0.70;;;16.30;63.10;;;;;;6310883;22;20025;-76
2021/05/26 11:24:32;;;;;;;3.10;1.13;;;16.30;63.20;;;;;;6321721;22;20015;-77
2021/05/26 11:26:58;;;;;;;2.47;0.77;;;16.30;63.30;;;;;;6321250;22;20076;-75
2021/05/26 11:29:31;;;;;;;5.10;1.30;;;16.30;63.40;;;;;;6321967;22;20007;-76
2021/05/26 11:32:13;;;;;;;1.42;0.50;;;16.30;63.40;;;;;;6322303;22;20068;-76
2021/05/26 11:34:41;;;;;;;5.05;0.65;;;16.30;63.30;;;;;;6321412;22;20065;-76
2021/05/26 11:37:08;;;;;;;2.67;0.80;;;16.30;63.20;;;;;;6321853;22;20007;-76
2021/05/26 11:39:35;;;;;;;2.83;0.70;;;16.30;63.40;;;;;;6320628;22;20301;-75
2021/05/26 11:42:14;;;;;;;3.28;0.70;;;16.30;63.40;;;;;;6322094;22;20034;-75
2021/05/26 11:44:52;;;;;;;1.85;0.98;;;16.30;63.30;;;;;;6321005;22;20035;-75
2021/05/26 11:47:48;;;;;;;3.13;1.25;;;16.30;64.10;;;;;;6310786;22;20011;-75
2021/05/26 11:50:15;;;;;;;2.88;0.90;;;16.20;63.90;;;;;;6309771;22;20065;-75
2021/05/26 11:52:46;;;;;;;4.22;1.20;;;16.20;63.60;;;;;;6321288;22;20011;-75
2021/05/26 11:55:16;;;;;;;3.80;0.82;;;16.20;63.60;;;;;;6320870;22;20061;-76
2021/05/26 11:57:44;;;;;;;4.22;0.93;;;16.20;63.60;;;;;;6321248;22;20022;-75
2021/05/26 12:00:27;;;;;;;1.92;0.90;;;16.20;63.60;;;;;;6321210;22;20007;-78
2021/05/26 12:03:12;;;;;;;3.72;0.80;;;16.20;62.90;;;;;;6321114;22;20007;-76
2021/05/26 12:05:43;;;;;;;2.55;0.95;;;16.20;63.40;;;;;;6321698;22;20014;-74
2021/05/26 12:08:16;;;;;;;3.55;0.90;;;16.20;63.60;;;;;;6321593;22;20018;-76
2021/05/26 12:10:43;;;;;;;3.35;0.90;;;16.20;63.60;;;;;;6320754;22;20404;-78
2021/05/26 12:13:09;;;;;;;1.80;0.80;;;16.20;63.60;;;;;;6321102;22;20008;-76
2021/05/26 12:15:35;;;;;;;4.75;1.10;;;16.20;63.70;;;;;;6320985;22;20091;-74
2021/05/26 12:18:01;;;;;;;2.20;1.02;;;16.20;63.70;;;;;;6321071;22;20080;-76
2021/05/26 12:20:28;;;;;;;1.98;0.70;;;16.20;63.80;;;;;;6320661;22;20396;-76
2021/05/26 12:22:58;;;;;;;2.22;0.98;;;16.10;63.70;;;;;;6293730;22;20011;-75
2021/05/26 12:25:47;;;;;;;4.47;1.20;;;16.10;63.70;;;;;;6321080;22;20498;-76
2021/05/26 12:28:18;;;;;;;3.80;1.10;;;16.10;63.60;;;;;;6320756;22;20014;-77
2021/05/26 12:30:45;;;;;;;3.85;1.05;;;16.10;63.80;;;;;;6310292;22;20011;-76
2021/05/26 12:33:13;;;;;;;4.43;1.15;;;16.10;63.70;;;;;;6320973;22;20017;-77
2021/05/26 12:35:39;;;;;;;8.98;1.30;;;16.10;63.80;;;;;;6321184;22;20014;-82
2021/05/26 12:38:19;;;;;;;8.02;1.35;;;16.10;64.00;;;;;;6320761;22;20030;-79
2021/05/26 12:40:47;;;;;;;7.45;1.30;;;16.10;63.80;;;;;;6320036;22;20007;-78
2021/05/26 12:43:30;;;;;;;12.63;1.73;;;16.10;64.50;;;;;;6320257;22;20017;-80
2021/05/26 12:45:57;;;;;;;7.20;1.03;;;16.10;64.50;;;;;;6319302;22;20396;-80
2021/05/26 12:48:32;;;;;;;4.57;1.67;;;16.10;64.80;;;;;;6320725;22;20400;-80
2021/05/26 12:51:00;;;;;;;10.75;1.60;;;16.10;65.30;;;;;;6320310;22;20046;-80
2021/05/26 12:53:33;;;;;;;8.98;1.13;;;16.20;65.50;;;;;;6283166;22;20011;-77
2021/05/26 12:56:02;;;;;;;9.70;1.52;;;16.30;65.80;;;;;;6319839;22;20011;-77